Time;durP1;ratioP1;P1;durP2;ratioP2;P2;SDS_P1;SDS_P2;PMS_P1;PMS_P2;Temp;Humidity;BMP_temperature;BMP_pressure;BME280_temperature;BME280_humidity;BME280_pressure;Samples;Min_cycle;Max_cycle;Signal;HPM_P1;HPM_P2
2023/09/28 00:01:17;;;;;;;24.20;13.43;;;;;;;;;;5019729;28;20017;-66
2023/09/28 00:03:43;;;;;;;23.60;14.10;;;;;;;;;;5029352;28;20204;-68
2023/09/28 00:06:08;;;;;;;26.80;13.32;;;;;;;;;;5025332;28;20381;-69
2023/09/28 00:08:33;;;;;;;24.27;12.82;;;;;;;;;;5027675;28;20025;-69
2023/09/28 00:10:59;;;;;;;22.83;13.20;;;;;;;;;;5030760;28;20017;-69
2023/09/28 00:13:24;;;;;;;22.88;12.75;;;;;;;;;;5027114;28;20412;-69
2023/09/28 00:15:49;;;;;;;21.10;12.25;;;;;;;;;;5013003;28;20013;-69
2023/09/28 00:18:15;;;;;;;23.00;12.45;;;;;;;;;;5025324;28;20026;-68
2023/09/28 00:20:40;;;;;;;26.23;12.48;;;;;;;;;;5030809;28;20064;-69
2023/09/28 00:23:05;;;;;;;23.88;12.38;;;;;;;;;;5023986;28;20469;-66
2023/09/28 00:25:30;;;;;;;30.00;12.88;;;;;;;;;;5030592;28;20083;-66
2023/09/28 00:27:56;;;;;;;20.20;12.45;;;;;;;;;;5031097;28;20093;-69
2023/09/28 00:30:22;;;;;;;25.85;12.00;;;;;;;;;;5028769;28;20047;-69
2023/09/28 00:32:53;;;;;;;30.23;13.13;;;;;;;;;;5033069;28;20045;-68
2023/09/28 00:35:19;;;;;;;22.65;13.63;;;;;;;;;;5028024;28;20030;-70
2023/09/28 00:37:44;;;;;;;20.17;12.00;;;;;;;;;;5026999;28;20025;-70
2023/09/28 00:42:42;;;;;;;18.95;12.25;;;;;;;;;;5026947;28;20014;-67
2023/09/28 00:45:08;;;;;;;25.40;12.18;;;;;;;;;;5030296;28;20109;-70
2023/09/28 00:47:34;;;;;;;28.90;13.55;;;;;;;;;;5030431;28;20021;-69
2023/09/28 00:49:59;;;;;;;25.48;12.82;;;;;;;;;;5029890;28;20010;-69
2023/09/28 00:52:25;;;;;;;23.85;12.73;;;;;;;;;;5030941;28;20040;-68
2023/09/28 00:54:51;;;;;;;28.05;13.23;;;;;;;;;;5029675;28;20021;-69
2023/09/28 00:57:17;;;;;;;25.65;13.25;;;;;;;;;;5012856;28;20215;-68
2023/09/28 00:59:42;;;;;;;27.30;12.25;;;;;;;;;;5027130;28;20120;-69
2023/09/28 01:02:08;;;;;;;29.40;12.88;;;;;;;;;;5021059;28;20025;-69
2023/09/28 01:04:33;;;;;;;22.42;11.85;;;;;;;;;;5029416;28;20472;-69
2023/09/28 01:06:59;;;;;;;24.27;12.65;;;;;;;;;;5028791;28;20068;-67
2023/09/28 01:09:25;;;;;;;28.85;12.70;;;;;;;;;;5025626;28;20028;-68
2023/09/28 01:11:52;;;;;;;22.55;11.95;;;;;;;;;;5029813;28;20040;-67
2023/09/28 01:14:19;;;;;;;23.23;13.25;;;;;;;;;;5029517;28;20059;-69
2023/09/28 01:16:45;;;;;;;31.20;13.00;;;;;;;;;;5029953;28;20044;-67
2023/09/28 01:19:11;;;;;;;20.30;13.05;;;;;;;;;;5029573;28;20484;-68
2023/09/28 01:21:36;;;;;;;22.13;13.25;;;;;;;;;;5029746;28;20096;-69
2023/09/28 01:24:02;;;;;;;24.70;13.38;;;;;;;;;;5034173;28;20113;-68
2023/09/28 01:26:30;;;;;;;23.30;13.48;;;;;;;;;;5029772;28;20387;-67
2023/09/28 01:28:56;;;;;;;20.63;11.85;;;;;;;;;;5029624;28;20013;-67
2023/09/28 01:31:22;;;;;;;22.10;12.75;;;;;;;;;;5022791;28;20397;-68
2023/09/28 01:33:47;;;;;;;22.77;12.05;;;;;;;;;;5023416;28;20018;-69
2023/09/28 01:36:12;;;;;;;23.20;12.18;;;;;;;;;;5021063;28;20033;-70
2023/09/28 01:38:40;;;;;;;22.92;12.50;;;;;;;;;;5022830;28;20072;-70
2023/09/28 01:41:05;;;;;;;33.65;12.45;;;;;;;;;;5027122;28;20027;-67
2023/09/28 01:43:30;;;;;;;24.00;12.18;;;;;;;;;;5029491;28;20100;-68
2023/09/28 01:45:55;;;;;;;20.55;11.93;;;;;;;;;;5029003;28;20009;-67
2023/09/28 01:48:21;;;;;;;24.98;12.98;;;;;;;;;;5024839;28;20022;-69
2023/09/28 01:50:46;;;;;;;22.23;12.85;;;;;;;;;;5025719;28;20040;-69
2023/09/28 01:53:12;;;;;;;23.52;12.68;;;;;;;;;;5029010;28;20013;-68
2023/09/28 01:55:37;;;;;;;29.23;12.48;;;;;;;;;;5025302;28;20029;-69
2023/09/28 01:58:04;;;;;;;26.50;12.63;;;;;;;;;;5027580;28;20100;-68
2023/09/28 02:00:29;;;;;;;22.45;12.35;;;;;;;;;;5028422;28;20013;-68
2023/09/28 02:02:55;;;;;;;20.02;12.18;;;;;;;;;;5018057;28;20026;-67
2023/09/28 02:05:21;;;;;;;26.80;12.73;;;;;;;;;;5022890;28;20492;-67
2023/09/28 02:07:47;;;;;;;21.58;12.57;;;;;;;;;;5024112;28;20386;-68
2023/09/28 02:10:12;;;;;;;20.58;11.60;;;;;;;;;;5029428;28;20040;-69
2023/09/28 02:12:38;;;;;;;22.83;12.10;;;;;;;;;;5008464;28;20029;-70
2023/09/28 02:15:04;;;;;;;23.30;11.50;;;;;;;;;;5028349;28;20542;-65
2023/09/28 02:17:29;;;;;;;21.85;12.05;;;;;;;;;;5025214;28;20101;-67
2023/09/28 02:19:55;;;;;;;23.15;12.07;;;;;;;;;;5026504;28;20028;-69
2023/09/28 02:22:20;;;;;;;27.17;12.52;;;;;;;;;;5032203;28;20033;-68
2023/09/28 02:24:46;;;;;;;29.83;11.90;;;;;;;;;;5030381;28;20392;-68
2023/09/28 02:27:12;;;;;;;21.50;11.82;;;;;;;;;;5023133;28;20404;-69
2023/09/28 02:29:37;;;;;;;29.55;12.85;;;;;;;;;;5025775;28;20485;-68
2023/09/28 02:32:03;;;;;;;28.05;12.65;;;;;;;;;;5028275;28;20029;-68
2023/09/28 02:34:28;;;;;;;23.52;12.27;;;;;;;;;;5028497;28;20025;-68
2023/09/28 02:36:54;;;;;;;17.70;11.85;;;;;;;;;;5028300;28;20481;-67
2023/09/28 02:39:19;;;;;;;24.50;12.27;;;;;;;;;;5023074;28;20021;-68
2023/09/28 02:41:44;;;;;;;25.60;13.50;;;;;;;;;;5025079;28;20022;-69
2023/09/28 02:44:09;;;;;;;19.83;11.82;;;;;;;;;;5021422;28;20041;-69
2023/09/28 02:46:35;;;;;;;25.02;12.77;;;;;;;;;;5023149;28;20021;-68
2023/09/28 02:49:02;;;;;;;23.38;12.40;;;;;;;;;;5018763;28;20543;-69
2023/09/28 02:51:27;;;;;;;21.30;11.68;;;;;;;;;;5028081;28;20076;-69
2023/09/28 02:53:52;;;;;;;23.75;13.05;;;;;;;;;;5028588;28;20021;-65
2023/09/28 02:56:18;;;;;;;33.53;12.07;;;;;;;;;;5028877;28;20014;-67
2023/09/28 02:58:45;;;;;;;21.77;11.45;;;;;;;;;;5029337;28;20215;-67
2023/09/28 03:01:11;;;;;;;24.67;13.13;;;;;;;;;;5028093;28;20127;-67
2023/09/28 03:03:36;;;;;;;26.52;12.82;;;;;;;;;;5025861;28;20021;-69
2023/09/28 03:06:04;;;;;;;21.67;13.70;;;;;;;;;;5027424;28;20029;-65
2023/09/28 03:08:30;;;;;;;27.48;12.95;;;;;;;;;;5024912;28;20086;-71
2023/09/28 03:10:56;;;;;;;24.15;12.85;;;;;;;;;;5028433;28;20013;-66
2023/09/28 03:13:22;;;;;;;16.67;11.55;;;;;;;;;;5030121;28;20108;-67
2023/09/28 03:15:47;;;;;;;21.73;12.18;;;;;;;;;;5011385;28;20395;-69
2023/09/28 03:18:13;;;;;;;21.42;12.25;;;;;;;;;;5032019;28;20017;-65
2023/09/28 03:20:40;;;;;;;23.77;13.15;;;;;;;;;;5032244;28;20395;-67
2023/09/28 03:23:07;;;;;;;23.05;13.68;;;;;;;;;;5038633;28;20090;-66
2023/09/28 03:25:32;;;;;;;22.70;12.70;;;;;;;;;;5029609;28;20105;-66
2023/09/28 03:27:58;;;;;;;19.65;12.60;;;;;;;;;;5032192;28;20096;-68
2023/09/28 03:30:24;;;;;;;23.15;12.73;;;;;;;;;;5032636;28;20025;-69
2023/09/28 03:32:49;;;;;;;23.83;12.48;;;;;;;;;;5031606;28;20612;-69
2023/09/28 03:35:16;;;;;;;25.42;14.55;;;;;;;;;;5031558;28;20025;-70
2023/09/28 03:37:41;;;;;;;24.92;13.65;;;;;;;;;;5031884;28;20020;-70
2023/09/28 03:40:10;;;;;;;21.98;13.55;;;;;;;;;;5025087;28;20026;-70
2023/09/28 03:42:46;;;;;;;33.72;13.90;;;;;;;;;;5032025;28;20072;-69
2023/09/28 03:45:14;;;;;;;23.45;13.35;;;;;;;;;;5031319;28;20020;-70
2023/09/28 03:47:40;;;;;;;26.40;13.25;;;;;;;;;;5026894;28;20268;-69
2023/09/28 03:50:06;;;;;;;23.00;13.23;;;;;;;;;;5029076;28;20048;-70
2023/09/28 03:52:34;;;;;;;23.65;14.00;;;;;;;;;;5031729;28;20009;-70
2023/09/28 03:54:59;;;;;;;22.40;12.77;;;;;;;;;;5031395;28;20659;-70
2023/09/28 03:57:24;;;;;;;23.48;13.48;;;;;;;;;;5014385;28;20496;-67
2023/09/28 03:59:49;;;;;;;24.15;13.65;;;;;;;;;;5030497;28;20503;-65
2023/09/28 04:02:15;;;;;;;25.08;12.77;;;;;;;;;;5030933;28;20563;-67
2023/09/28 04:04:40;;;;;;;27.35;13.85;;;;;;;;;;5028023;28;20484;-68
2023/09/28 04:07:05;;;;;;;23.92;13.27;;;;;;;;;;5030009;28;20112;-69
2023/09/28 04:09:32;;;;;;;24.27;13.65;;;;;;;;;;5030814;28;20160;-69
2023/09/28 04:11:58;;;;;;;25.48;14.07;;;;;;;;;;5031062;28;20096;-69
2023/09/28 04:14:23;;;;;;;21.02;14.00;;;;;;;;;;5031030;28;20163;-65
2023/09/28 04:16:49;;;;;;;28.90;15.75;;;;;;;;;;5027939;28;20018;-67
2023/09/28 04:19:14;;;;;;;23.50;13.80;;;;;;;;;;5024016;28;20014;-71
2023/09/28 04:21:39;;;;;;;27.52;13.90;;;;;;;;;;5012127;28;20452;-65
2023/09/28 04:24:05;;;;;;;24.73;14.63;;;;;;;;;;5038060;28;20175;-67
2023/09/28 04:26:30;;;;;;;23.27;14.15;;;;;;;;;;5030528;28;20045;-68
2023/09/28 04:28:55;;;;;;;23.80;13.63;;;;;;;;;;5031063;28;20006;-68
2023/09/28 04:31:21;;;;;;;22.73;13.55;;;;;;;;;;5023358;28;20022;-66
2023/09/28 04:33:46;;;;;;;24.25;13.48;;;;;;;;;;5031837;28;20117;-68
2023/09/28 04:36:12;;;;;;;26.90;14.55;;;;;;;;;;5030145;28;20024;-69
2023/09/28 04:38:37;;;;;;;25.13;14.15;;;;;;;;;;5013051;28;20044;-69
2023/09/28 04:41:02;;;;;;;21.83;13.52;;;;;;;;;;5012601;28;20041;-69
2023/09/28 04:43:28;;;;;;;26.35;14.93;;;;;;;;;;5030398;28;20089;-66
2023/09/28 04:45:53;;;;;;;28.20;14.85;;;;;;;;;;5029355;28;20044;-68
2023/09/28 04:48:18;;;;;;;23.63;14.43;;;;;;;;;;5025307;28;20381;-67
2023/09/28 04:50:44;;;;;;;26.20;15.38;;;;;;;;;;5027238;28;20096;-69
2023/09/28 04:53:09;;;;;;;26.27;15.32;;;;;;;;;;5028059;28;20049;-70
2023/09/28 04:55:34;;;;;;;29.05;15.40;;;;;;;;;;5029079;28;20018;-68
2023/09/28 04:58:00;;;;;;;23.52;14.45;;;;;;;;;;5022096;28;20393;-68
2023/09/28 05:00:26;;;;;;;29.45;15.80;;;;;;;;;;5029197;28;20017;-68
2023/09/28 05:02:52;;;;;;;25.98;14.80;;;;;;;;;;5028772;28;20025;-67
2023/09/28 05:05:17;;;;;;;33.03;15.52;;;;;;;;;;5008515;28;20109;-69
2023/09/28 05:07:42;;;;;;;27.17;14.73;;;;;;;;;;5024492;28;20035;-70
2023/09/28 05:10:08;;;;;;;30.08;16.35;;;;;;;;;;5030239;28;20017;-71
2023/09/28 05:12:33;;;;;;;30.05;15.50;;;;;;;;;;5028385;28;20029;-70
2023/09/28 05:14:59;;;;;;;33.45;15.93;;;;;;;;;;5024053;28;20033;-67
2023/09/28 05:17:24;;;;;;;35.92;16.67;;;;;;;;;;5020639;28;20034;-68
2023/09/28 05:19:49;;;;;;;33.97;16.20;;;;;;;;;;5026348;28;20084;-69
2023/09/28 05:22:15;;;;;;;30.60;15.43;;;;;;;;;;5031056;28;20018;-69
2023/09/28 05:24:40;;;;;;;22.92;14.68;;;;;;;;;;5027234;28;20049;-68
2023/09/28 05:27:05;;;;;;;28.17;15.90;;;;;;;;;;5022938;28;20041;-65
2023/09/28 05:29:31;;;;;;;24.63;14.57;;;;;;;;;;5025312;28;20021;-68
2023/09/28 05:31:56;;;;;;;65.00;16.17;;;;;;;;;;5029919;28;20634;-71
2023/09/28 05:34:21;;;;;;;23.85;14.88;;;;;;;;;;5025549;28;20129;-69
2023/09/28 05:36:47;;;;;;;23.27;14.07;;;;;;;;;;5026816;28;20100;-68
2023/09/28 05:39:12;;;;;;;32.13;15.68;;;;;;;;;;5010589;28;20025;-67
2023/09/28 05:41:37;;;;;;;35.78;14.57;;;;;;;;;;5028617;28;20081;-68
2023/09/28 05:44:03;;;;;;;28.52;14.77;;;;;;;;;;5028996;28;20032;-68
2023/09/28 05:46:28;;;;;;;27.95;13.93;;;;;;;;;;5028979;28;20048;-67
2023/09/28 05:48:53;;;;;;;28.73;14.57;;;;;;;;;;5029217;28;20469;-67
2023/09/28 05:51:19;;;;;;;28.38;14.98;;;;;;;;;;5024621;28;20045;-67
2023/09/28 05:53:44;;;;;;;30.15;15.55;;;;;;;;;;5021681;28;20033;-65
2023/09/28 05:56:09;;;;;;;25.27;14.07;;;;;;;;;;5028890;28;20518;-68
2023/09/28 05:58:34;;;;;;;28.30;14.90;;;;;;;;;;5028294;28;20067;-66
2023/09/28 06:01:07;;;;;;;27.65;15.20;;;;;;;;;;5010903;28;20021;-69
2023/09/28 06:03:32;;;;;;;27.42;14.05;;;;;;;;;;5024397;28;20062;-69
2023/09/28 06:05:57;;;;;;;34.13;15.52;;;;;;;;;;5026248;28;20021;-68
2023/09/28 06:08:22;;;;;;;28.45;15.35;;;;;;;;;;5027173;28;20030;-68
2023/09/28 06:10:48;;;;;;;28.92;13.95;;;;;;;;;;5024644;28;20025;-68
2023/09/28 06:13:13;;;;;;;25.90;14.32;;;;;;;;;;5028927;28;20013;-66
2023/09/28 06:15:39;;;;;;;21.58;14.07;;;;;;;;;;5028964;28;20025;-64
2023/09/28 06:18:04;;;;;;;24.83;14.50;;;;;;;;;;5022635;28;20017;-67
2023/09/28 06:20:29;;;;;;;24.80;14.13;;;;;;;;;;5020658;28;20021;-70
2023/09/28 06:22:54;;;;;;;23.13;13.75;;;;;;;;;;5012328;28;20086;-68
2023/09/28 06:25:20;;;;;;;23.63;13.77;;;;;;;;;;5029307;28;20059;-68
2023/09/28 06:27:45;;;;;;;23.02;13.60;;;;;;;;;;5028930;28;20535;-69
2023/09/28 06:30:10;;;;;;;23.88;13.80;;;;;;;;;;5027004;28;20014;-69
2023/09/28 06:32:36;;;;;;;24.45;13.95;;;;;;;;;;5030266;28;20024;-68
2023/09/28 06:35:01;;;;;;;28.42;14.32;;;;;;;;;;5018308;28;20442;-68
2023/09/28 06:37:27;;;;;;;25.15;14.10;;;;;;;;;;5024540;28;20063;-69
2023/09/28 06:39:53;;;;;;;25.02;14.07;;;;;;;;;;5025546;28;20017;-68
2023/09/28 06:42:18;;;;;;;24.17;14.00;;;;;;;;;;5010926;28;20032;-67
2023/09/28 06:44:43;;;;;;;27.17;15.05;;;;;;;;;;5023424;28;20022;-68
2023/09/28 06:47:08;;;;;;;29.42;15.90;;;;;;;;;;5027584;28;20021;-69
2023/09/28 06:49:34;;;;;;;26.48;14.32;;;;;;;;;;5029591;28;20501;-68
2023/09/28 06:52:00;;;;;;;26.20;14.80;;;;;;;;;;5032470;28;20075;-67
2023/09/28 06:54:25;;;;;;;23.27;14.38;;;;;;;;;;5032333;28;20045;-69
2023/09/28 06:56:50;;;;;;;23.75;13.73;;;;;;;;;;5030928;28;20052;-68
2023/09/28 06:59:15;;;;;;;23.23;13.10;;;;;;;;;;5030206;28;20048;-66
2023/09/28 07:01:41;;;;;;;25.00;13.27;;;;;;;;;;5029301;28;20033;-68
2023/09/28 07:04:06;;;;;;;20.15;13.20;;;;;;;;;;5031176;28;20592;-66
2023/09/28 07:06:33;;;;;;;28.10;13.23;;;;;;;;;;5028113;28;20028;-67
2023/09/28 07:08:58;;;;;;;27.15;14.10;;;;;;;;;;5032163;28;20523;-68
2023/09/28 07:11:24;;;;;;;23.98;14.00;;;;;;;;;;5032057;28;20056;-69
2023/09/28 07:13:49;;;;;;;25.30;14.05;;;;;;;;;;5030049;28;20513;-69
2023/09/28 07:16:14;;;;;;;29.60;14.43;;;;;;;;;;5027446;28;20021;-69
2023/09/28 07:18:39;;;;;;;30.52;14.15;;;;;;;;;;5031081;28;20028;-69
2023/09/28 07:21:05;;;;;;;20.73;13.50;;;;;;;;;;5028716;28;20092;-68
2023/09/28 07:23:30;;;;;;;24.58;13.65;;;;;;;;;;5033259;28;20040;-69
2023/09/28 07:25:56;;;;;;;22.23;12.98;;;;;;;;;;5027463;28;20009;-65
2023/09/28 07:28:21;;;;;;;30.50;13.80;;;;;;;;;;5026043;28;20547;-67
2023/09/28 07:30:46;;;;;;;25.65;14.73;;;;;;;;;;5031038;28;20487;-69
2023/09/28 07:33:13;;;;;;;26.95;14.30;;;;;;;;;;5032716;28;20022;-67
2023/09/28 07:35:38;;;;;;;30.65;14.23;;;;;;;;;;5031398;28;20537;-69
2023/09/28 07:38:04;;;;;;;23.33;13.57;;;;;;;;;;5027084;28;20018;-69
2023/09/28 07:40:29;;;;;;;24.03;13.20;;;;;;;;;;5031826;28;20431;-70
2023/09/28 07:42:54;;;;;;;22.02;13.18;;;;;;;;;;5012267;28;20313;-67
2023/09/28 07:45:20;;;;;;;26.08;13.05;;;;;;;;;;5013353;28;20010;-69
2023/09/28 07:47:45;;;;;;;29.77;13.07;;;;;;;;;;5030974;28;20423;-66
2023/09/28 07:50:17;;;;;;;24.20;13.70;;;;;;;;;;5030835;28;20082;-65
2023/09/28 07:52:43;;;;;;;24.08;13.02;;;;;;;;;;5031806;28;20119;-66
2023/09/28 07:55:08;;;;;;;28.08;12.85;;;;;;;;;;5028792;28;20501;-69
2023/09/28 07:57:33;;;;;;;41.72;14.23;;;;;;;;;;5025740;28;20022;-67
2023/09/28 07:59:59;;;;;;;23.38;13.43;;;;;;;;;;5018720;28;20093;-68
2023/09/28 08:02:25;;;;;;;18.13;11.90;;;;;;;;;;5029996;28;20104;-66
2023/09/28 08:04:51;;;;;;;22.23;12.40;;;;;;;;;;5027516;28;20533;-70
2023/09/28 08:07:17;;;;;;;29.55;12.50;;;;;;;;;;5019631;28;20041;-68
2023/09/28 08:09:42;;;;;;;27.42;14.07;;;;;;;;;;5025170;28;20013;-71
2023/09/28 08:12:08;;;;;;;24.55;12.52;;;;;;;;;;5024789;28;20079;-68
2023/09/28 08:14:33;;;;;;;19.70;12.02;;;;;;;;;;5023486;28;20036;-69
2023/09/28 08:16:58;;;;;;;25.73;13.00;;;;;;;;;;5021466;28;20139;-68
2023/09/28 08:19:24;;;;;;;25.60;12.35;;;;;;;;;;5023803;28;20034;-67
2023/09/28 08:21:49;;;;;;;22.80;11.77;;;;;;;;;;5022261;28;20029;-67
2023/09/28 08:24:14;;;;;;;24.83;11.77;;;;;;;;;;5024276;28;20018;-67
2023/09/28 08:26:40;;;;;;;20.40;10.95;;;;;;;;;;5020913;28;20029;-68
2023/09/28 08:29:05;;;;;;;20.75;11.32;;;;;;;;;;5005699;28;20479;-71
2023/09/28 08:31:32;;;;;;;27.95;11.27;;;;;;;;;;5006118;28;20024;-69
2023/09/28 08:34:01;;;;;;;24.95;10.57;;;;;;;;;;5020929;28;20037;-69
2023/09/28 08:36:26;;;;;;;;;;;;;;;;;;5004071;28;20036;-69
2023/09/28 08:38:51;;;;;;;25.45;9.77;;;;;;;;;;5023502;28;20391;-69
2023/09/28 08:41:19;;;;;;;18.63;9.35;;;;;;;;;;5023614;28;20047;-68
2023/09/28 08:43:52;;;;;;;38.60;10.15;;;;;;;;;;5021917;28;20061;-70
2023/09/28 08:46:18;;;;;;;23.23;9.90;;;;;;;;;;5021066;28;20044;-70
2023/09/28 08:48:47;;;;;;;21.73;9.70;;;;;;;;;;5023246;28;20381;-70
2023/09/28 08:51:13;;;;;;;20.20;8.43;;;;;;;;;;5021807;28;20009;-69
2023/09/28 08:53:38;;;;;;;22.48;9.35;;;;;;;;;;5022822;28;20334;-69
2023/09/28 08:56:04;;;;;;;14.02;8.18;;;;;;;;;;5022914;28;20104;-69
2023/09/28 08:58:32;;;;;;;20.75;8.68;;;;;;;;;;5020480;28;20033;-68
2023/09/28 09:00:58;;;;;;;21.60;7.77;;;;;;;;;;5020981;28;20106;-70
2023/09/28 09:03:24;;;;;;;15.32;7.40;;;;;;;;;;5021841;28;20147;-69
2023/09/28 09:05:50;;;;;;;22.60;6.78;;;;;;;;;;5019903;28;20123;-69
2023/09/28 09:08:16;;;;;;;10.95;6.43;;;;;;;;;;5021114;28;20175;-67
2023/09/28 09:10:41;;;;;;;14.05;6.60;;;;;;;;;;5021988;28;20549;-69
2023/09/28 09:13:14;;;;;;;11.90;5.68;;;;;;;;;;5023045;28;20029;-69
2023/09/28 09:15:41;;;;;;;13.27;6.40;;;;;;;;;;5020985;28;20014;-69
2023/09/28 09:18:07;;;;;;;13.95;5.60;;;;;;;;;;5021666;28;20506;-67
2023/09/28 09:20:33;;;;;;;13.18;6.95;;;;;;;;;;5022877;28;20032;-69
2023/09/28 09:23:10;;;;;;;16.73;5.43;;;;;;;;;;5023223;28;20025;-69
2023/09/28 09:25:47;;;;;;;16.85;5.95;;;;;;;;;;5020469;28;20029;-69
2023/09/28 09:28:13;;;;;;;9.13;4.88;;;;;;;;;;5021796;28;20018;-69
2023/09/28 09:30:38;;;;;;;6.82;3.85;;;;;;;;;;5022276;28;20062;-71
2023/09/28 09:33:06;;;;;;;8.10;3.95;;;;;;;;;;5023312;28;20218;-70
2023/09/28 09:35:33;;;;;;;;;;;;;;;;;;5021650;28;20515;-71
2023/09/28 09:37:58;;;;;;;8.10;3.60;;;;;;;;;;5020630;28;19970;-67
2023/09/28 09:40:25;;;;;;;8.13;4.07;;;;;;;;;;5022077;28;20030;-68
2023/09/28 09:42:50;;;;;;;8.93;3.78;;;;;;;;;;5021506;28;20083;-68
2023/09/28 09:45:18;;;;;;;9.82;4.05;;;;;;;;;;5003104;28;20017;-67
2023/09/28 09:47:46;;;;;;;8.65;4.30;;;;;;;;;;5019312;28;20017;-69
2023/09/28 09:50:12;;;;;;;10.63;4.90;;;;;;;;;;5022104;28;20033;-70
2023/09/28 09:52:37;;;;;;;11.00;4.32;;;;;;;;;;5020992;28;20271;-71
2023/09/28 09:55:02;;;;;;;8.77;4.50;;;;;;;;;;5021564;28;20048;-69
2023/09/28 09:57:30;;;;;;;10.65;4.47;;;;;;;;;;5018974;28;20095;-69
2023/09/28 09:59:57;;;;;;;9.32;4.15;;;;;;;;;;5020378;28;20074;-65
2023/09/28 10:02:28;;;;;;;13.48;4.50;;;;;;;;;;5021176;28;20032;-69
2023/09/28 10:04:54;;;;;;;10.60;4.47;;;;;;;;;;5021394;28;20034;-69
2023/09/28 10:07:24;;;;;;;8.13;5.00;;;;;;;;;;5019607;28;20056;-69
2023/09/28 10:09:50;;;;;;;12.43;4.32;;;;;;;;;;5021177;28;20053;-71
2023/09/28 10:12:15;;;;;;;10.23;4.30;;;;;;;;;;5022068;28;20065;-71
2023/09/28 10:14:41;;;;;;;11.30;4.20;;;;;;;;;;5021055;28;20029;-66
2023/09/28 10:17:07;;;;;;;7.32;3.75;;;;;;;;;;5019618;28;20033;-69
2023/09/28 10:19:33;;;;;;;10.52;4.05;;;;;;;;;;5021225;28;20021;-70
2023/09/28 10:21:59;;;;;;;15.60;4.38;;;;;;;;;;5021255;28;20056;-70
2023/09/28 10:24:28;;;;;;;9.48;3.88;;;;;;;;;;5020753;28;20140;-70
2023/09/28 10:26:54;;;;;;;7.72;3.42;;;;;;;;;;5019148;28;20025;-68
2023/09/28 10:29:28;;;;;;;8.30;3.75;;;;;;;;;;5020981;28;20532;-69
2023/09/28 10:31:53;;;;;;;11.75;3.97;;;;;;;;;;5022149;28;20680;-68
2023/09/28 10:34:19;;;;;;;9.95;3.97;;;;;;;;;;5003879;28;20062;-70
2023/09/28 10:37:05;;;;;;;9.07;3.95;;;;;;;;;;5019364;28;20091;-70
2023/09/28 10:39:31;;;;;;;11.93;3.58;;;;;;;;;;5020235;28;20797;-69
2023/09/28 10:42:03;;;;;;;7.85;3.70;;;;;;;;;;5020092;28;20040;-72
2023/09/28 10:44:31;;;;;;;6.60;3.33;;;;;;;;;;5020733;28;20025;-71
2023/09/28 10:46:57;;;;;;;6.20;3.53;;;;;;;;;;5017936;28;20497;-69
2023/09/28 10:49:22;;;;;;;9.43;3.25;;;;;;;;;;5018834;28;20025;-68
2023/09/28 10:51:48;;;;;;;8.88;3.28;;;;;;;;;;5021004;28;20025;-70
2023/09/28 10:54:14;;;;;;;12.57;3.67;;;;;;;;;;5020769;28;20033;-68
2023/09/28 10:56:39;;;;;;;7.20;3.35;;;;;;;;;;5020290;28;20021;-70
2023/09/28 10:59:06;;;;;;;10.75;3.78;;;;;;;;;;5021767;28;20393;-68
2023/09/28 11:01:31;;;;;;;8.05;3.45;;;;;;;;;;5021142;28;20036;-69
2023/09/28 11:03:57;;;;;;;7.35;3.05;;;;;;;;;;5019654;28;20025;-67
2023/09/28 11:06:23;;;;;;;8.35;3.47;;;;;;;;;;5018893;28;20025;-69
2023/09/28 11:08:49;;;;;;;16.17;5.45;;;;;;;;;;5020120;28;20014;-68
2023/09/28 11:11:17;;;;;;;13.25;3.53;;;;;;;;;;5018158;28;20101;-68
2023/09/28 11:13:43;;;;;;;7.57;3.42;;;;;;;;;;5020248;28;20031;-67
2023/09/28 11:16:09;;;;;;;11.15;3.58;;;;;;;;;;5016694;28;20029;-68
2023/09/28 11:18:36;;;;;;;14.68;3.20;;;;;;;;;;5019755;28;20115;-69
2023/09/28 11:21:03;;;;;;;8.60;3.17;;;;;;;;;;5019038;28;20191;-67
2023/09/28 11:23:28;;;;;;;7.63;2.65;;;;;;;;;;5019700;28;20111;-69
2023/09/28 11:25:54;;;;;;;9.63;2.63;;;;;;;;;;5019025;28;20022;-68
2023/09/28 11:28:19;;;;;;;6.03;3.13;;;;;;;;;;5019645;28;20025;-70
2023/09/28 11:30:45;;;;;;;4.93;2.90;;;;;;;;;;5019871;28;20100;-72
2023/09/28 11:33:10;;;;;;;8.63;3.38;;;;;;;;;;5021249;28;20593;-69
2023/09/28 11:35:38;;;;;;;8.23;2.92;;;;;;;;;;5022770;28;20105;-68
2023/09/28 11:38:11;;;;;;;9.10;2.83;;;;;;;;;;5022991;28;20077;-68
2023/09/28 11:40:37;;;;;;;7.18;3.28;;;;;;;;;;5011864;28;20029;-68
2023/09/28 11:43:02;;;;;;;5.72;2.90;;;;;;;;;;5024016;28;20044;-67
2023/09/28 11:45:28;;;;;;;8.25;3.00;;;;;;;;;;5022524;28;20025;-70
2023/09/28 11:47:53;;;;;;;7.25;2.90;;;;;;;;;;5021692;28;20013;-68
2023/09/28 11:50:19;;;;;;;7.97;2.70;;;;;;;;;;5023400;28;20081;-69
2023/09/28 11:52:45;;;;;;;8.73;2.80;;;;;;;;;;5024842;28;20029;-67
2023/09/28 11:55:17;;;;;;;12.02;2.90;;;;;;;;;;5007129;28;20259;-70
2023/09/28 11:57:45;;;;;;;8.20;2.65;;;;;;;;;;5023377;28;20104;-68
2023/09/28 12:00:17;;;;;;;;;;;;;;;;;;5022944;28;20029;-69
2023/09/28 12:02:43;;;;;;;6.22;2.67;;;;;;;;;;5024254;28;19913;-69
2023/09/28 12:05:08;;;;;;;7.18;2.95;;;;;;;;;;5023154;28;20040;-66
2023/09/28 12:07:34;;;;;;;11.32;3.28;;;;;;;;;;5022529;28;20030;-71
2023/09/28 12:09:59;;;;;;;9.63;2.80;;;;;;;;;;5023437;28;20022;-71
2023/09/28 12:12:24;;;;;;;4.25;2.40;;;;;;;;;;5024003;28;20132;-68
2023/09/28 12:14:50;;;;;;;6.40;2.47;;;;;;;;;;5023146;28;20159;-68
2023/09/28 12:17:15;;;;;;;10.57;2.47;;;;;;;;;;5020166;28;20036;-70
2023/09/28 12:19:41;;;;;;;6.22;2.50;;;;;;;;;;5024008;28;20017;-71
2023/09/28 12:22:07;;;;;;;6.20;2.70;;;;;;;;;;5024425;28;20026;-72
2023/09/28 12:24:32;;;;;;;8.98;2.60;;;;;;;;;;5023769;28;20262;-70
2023/09/28 12:26:59;;;;;;;7.72;2.70;;;;;;;;;;5021436;28;20021;-67
2023/09/28 12:29:24;;;;;;;7.13;2.70;;;;;;;;;;5022703;28;20152;-70
2023/09/28 12:31:49;;;;;;;8.20;2.88;;;;;;;;;;5021189;28;20104;-70
2023/09/28 12:34:15;;;;;;;7.50;3.30;;;;;;;;;;5019854;28;20040;-69
2023/09/28 12:36:41;;;;;;;7.77;3.27;;;;;;;;;;5023435;28;20053;-69
2023/09/28 12:39:10;;;;;;;8.77;3.38;;;;;;;;;;5020603;28;20271;-69
2023/09/28 12:41:35;;;;;;;6.47;2.67;;;;;;;;;;5023804;28;20119;-69
2023/09/28 12:44:01;;;;;;;5.35;2.80;;;;;;;;;;5029672;28;20411;-70
2023/09/28 12:46:27;;;;;;;6.28;2.50;;;;;;;;;;5022680;28;20093;-66
2023/09/28 12:48:54;;;;;;;7.53;2.95;;;;;;;;;;5024465;28;20017;-69
2023/09/28 12:51:20;;;;;;;6.75;2.70;;;;;;;;;;5021972;28;20022;-70
2023/09/28 12:53:45;;;;;;;8.60;2.90;;;;;;;;;;5027555;28;20074;-69
2023/09/28 12:56:12;;;;;;;11.40;3.60;;;;;;;;;;5029630;28;20495;-68
2023/09/28 12:58:38;;;;;;;8.25;3.17;;;;;;;;;;5026079;28;20021;-66
2023/09/28 13:01:03;;;;;;;7.65;2.40;;;;;;;;;;5028780;28;20515;-65
2023/09/28 13:03:28;;;;;;;6.25;2.50;;;;;;;;;;5016054;28;20713;-68
2023/09/28 13:05:54;;;;;;;6.35;3.00;;;;;;;;;;5026791;28;20045;-70
2023/09/28 13:08:19;;;;;;;16.73;3.55;;;;;;;;;;5027504;28;20108;-70
2023/09/28 13:10:44;;;;;;;6.95;2.67;;;;;;;;;;5027455;28;20033;-67
2023/09/28 13:13:10;;;;;;;7.82;3.00;;;;;;;;;;5027964;28;20056;-69
2023/09/28 13:15:35;;;;;;;6.80;2.60;;;;;;;;;;5025566;28;20079;-69
2023/09/28 13:18:01;;;;;;;10.63;3.40;;;;;;;;;;5024631;28;20507;-70
2023/09/28 13:20:30;;;;;;;8.27;2.40;;;;;;;;;;5030423;28;20068;-66
2023/09/28 13:22:57;;;;;;;11.23;3.50;;;;;;;;;;5026706;28;20013;-68
2023/09/28 13:25:23;;;;;;;12.85;2.60;;;;;;;;;;5028909;28;20473;-68
2023/09/28 13:27:49;;;;;;;7.68;2.95;;;;;;;;;;5009978;28;20024;-69
2023/09/28 13:30:14;;;;;;;10.25;2.85;;;;;;;;;;5021351;28;20424;-69
2023/09/28 13:32:39;;;;;;;14.50;2.85;;;;;;;;;;5025974;28;20543;-67
2023/09/28 13:35:11;;;;;;;7.88;2.63;;;;;;;;;;5027088;28;20465;-67
2023/09/28 13:37:36;;;;;;;7.80;2.80;;;;;;;;;;5020489;28;20393;-70
2023/09/28 13:40:02;;;;;;;13.30;3.33;;;;;;;;;;5026934;28;20511;-67
2023/09/28 13:42:27;;;;;;;12.80;2.95;;;;;;;;;;5029305;28;20071;-64
2023/09/28 13:44:53;;;;;;;8.95;2.80;;;;;;;;;;5030621;28;20431;-67
2023/09/28 13:47:18;;;;;;;7.38;2.88;;;;;;;;;;5028971;28;20020;-68
2023/09/28 13:49:43;;;;;;;5.72;2.60;;;;;;;;;;5029443;28;20021;-68
2023/09/28 13:52:09;;;;;;;9.80;3.50;;;;;;;;;;5026605;28;20029;-68
2023/09/28 13:54:34;;;;;;;6.07;2.80;;;;;;;;;;5028891;28;20247;-67
2023/09/28 13:57:05;;;;;;;7.65;2.60;;;;;;;;;;5025554;28;20040;-70
2023/09/28 13:59:31;;;;;;;10.73;2.70;;;;;;;;;;5017102;28;20441;-68
2023/09/28 14:01:57;;;;;;;8.95;2.90;;;;;;;;;;5021117;28;20025;-67
2023/09/28 14:04:23;;;;;;;7.78;3.17;;;;;;;;;;5019018;28;20013;-69
2023/09/28 14:06:48;;;;;;;6.60;2.75;;;;;;;;;;5023020;28;20017;-71
2023/09/28 14:09:18;;;;;;;10.02;2.80;;;;;;;;;;5028202;28;20037;-68
2023/09/28 14:11:43;;;;;;;12.55;3.13;;;;;;;;;;5029220;28;20058;-66
2023/09/28 14:14:09;;;;;;;11.07;3.00;;;;;;;;;;5026856;28;20108;-69
2023/09/28 14:16:36;;;;;;;6.38;2.95;;;;;;;;;;5028287;28;20021;-68
2023/09/28 14:19:02;;;;;;;7.57;2.78;;;;;;;;;;5026495;28;20032;-71
2023/09/28 14:21:27;;;;;;;7.18;3.45;;;;;;;;;;5028544;28;20481;-68